createdAt,value
2017-08-28T00:00:34.584Z,1009.89
2017-08-28T00:01:14.974Z,1009.9
2017-08-28T00:01:55.388Z,1009.91
2017-08-28T00:02:35.790Z,1009.92
2017-08-28T00:03:16.320Z,1009.91
2017-08-28T00:03:56.665Z,1009.89
2017-08-28T00:04:37.118Z,1009.87
2017-08-28T00:05:17.525Z,1009.86
2017-08-28T00:05:57.942Z,1009.85
2017-08-28T00:06:38.365Z,1009.88
2017-08-28T00:07:18.761Z,1009.86
2017-08-28T00:07:59.211Z,1009.86
2017-08-28T00:08:39.651Z,1009.87
2017-08-28T00:09:19.995Z,1009.89
2017-08-28T00:10:00.397Z,1009.86
2017-08-28T00:10:40.825Z,1009.84
2017-08-28T00:11:21.288Z,1009.87
2017-08-28T00:12:01.645Z,1009.84
2017-08-28T00:12:42.050Z,1009.84
2017-08-28T00:13:22.422Z,1009.85
2017-08-28T00:14:02.830Z,1009.85
2017-08-28T00:14:43.323Z,1009.79
2017-08-28T00:15:23.819Z,1009.77
2017-08-28T00:16:04.395Z,1009.79
2017-08-28T00:16:44.811Z,1009.77
2017-08-28T00:17:25.243Z,1009.75
2017-08-28T00:18:05.631Z,1009.76
2017-08-28T00:18:46.064Z,1009.74
2017-08-28T00:19:26.430Z,1009.75
2017-08-28T00:20:06.863Z,1009.72
2017-08-28T00:20:47.267Z,1009.71
2017-08-28T00:21:27.697Z,1009.7
2017-08-28T00:22:08.035Z,1009.75
2017-08-28T00:22:48.589Z,1009.73
2017-08-28T00:23:28.920Z,1009.78
2017-08-28T00:24:09.409Z,1009.71
2017-08-28T00:24:49.815Z,1009.73
2017-08-28T00:25:30.284Z,1009.75
2017-08-28T00:26:10.713Z,1009.7
2017-08-28T00:26:51.096Z,1009.74
2017-08-28T00:27:31.444Z,1009.76
2017-08-28T00:28:11.875Z,1009.75
2017-08-28T00:28:52.328Z,1009.73
2017-08-28T00:29:32.721Z,1009.76
2017-08-28T00:30:13.117Z,1009.75
2017-08-28T00:30:53.488Z,1009.73
2017-08-28T00:31:33.891Z,1009.71
2017-08-28T00:32:14.339Z,1009.74
2017-08-28T00:32:54.803Z,1009.75
2017-08-28T00:33:35.321Z,1009.78
2017-08-28T00:34:15.729Z,1009.73
2017-08-28T00:34:56.158Z,1009.73
2017-08-28T00:35:36.549Z,1009.72
2017-08-28T00:36:17.018Z,1009.76
2017-08-28T00:36:57.442Z,1009.76
2017-08-28T00:37:37.767Z,1009.76
2017-08-28T00:38:18.253Z,1009.8
2017-08-28T00:38:58.769Z,1009.75
2017-08-28T00:39:39.137Z,1009.76
2017-08-28T00:40:19.612Z,1009.77
2017-08-28T00:41:00.138Z,1009.77
2017-08-28T00:41:40.585Z,1009.72
2017-08-28T00:42:20.940Z,1009.76
2017-08-28T00:43:01.362Z,1009.77
2017-08-28T00:43:41.784Z,1009.76
2017-08-28T00:44:22.215Z,1009.77
2017-08-28T00:45:02.655Z,1009.74
2017-08-28T00:45:43.115Z,1009.76
2017-08-28T00:46:23.557Z,1009.75
2017-08-28T00:47:03.990Z,1009.71
2017-08-28T00:47:44.400Z,1009.74
2017-08-28T00:48:24.757Z,1009.74
2017-08-28T00:49:05.161Z,1009.72
2017-08-28T00:49:45.615Z,1009.71
2017-08-28T00:50:26.016Z,1009.71
2017-08-28T00:51:06.413Z,1009.7
2017-08-28T00:51:46.852Z,1009.68
2017-08-28T00:52:27.252Z,1009.69
2017-08-28T00:53:07.646Z,1009.69
2017-08-28T00:53:48.092Z,1009.67
2017-08-28T00:54:28.427Z,1009.67
2017-08-28T00:55:08.850Z,1009.65
2017-08-28T00:55:49.226Z,1009.63
2017-08-28T00:56:29.691Z,1009.64
2017-08-28T00:57:10.016Z,1009.63
2017-08-28T00:57:50.523Z,1009.63
2017-08-28T00:58:30.938Z,1009.63
2017-08-28T00:59:11.344Z,1009.61
2017-08-28T00:59:51.710Z,1009.62
2017-08-28T01:00:32.312Z,1009.63
2017-08-28T01:01:12.832Z,1009.62
2017-08-28T01:01:53.354Z,1009.61
2017-08-28T01:02:33.724Z,1009.6
2017-08-28T01:03:14.209Z,1009.6
2017-08-28T01:03:54.661Z,1009.57
2017-08-28T01:04:35.152Z,1009.57
2017-08-28T01:05:15.517Z,1009.56
2017-08-28T01:05:55.943Z,1009.54
2017-08-28T01:06:36.481Z,1009.56
2017-08-28T01:07:16.903Z,1009.57
2017-08-28T01:07:57.343Z,1009.51
2017-08-28T01:08:37.764Z,1009.55
2017-08-28T01:09:18.142Z,1009.5
2017-08-28T01:09:58.545Z,1009.52
2017-08-28T01:10:38.952Z,1009.5
2017-08-28T01:11:19.335Z,1009.51
2017-08-28T01:11:59.802Z,1009.5
2017-08-28T01:12:40.196Z,1009.46
2017-08-28T01:13:20.525Z,1009.43
2017-08-28T01:14:01.068Z,1009.41
2017-08-28T01:14:41.429Z,1009.43
2017-08-28T01:15:21.801Z,1009.43
2017-08-28T01:16:02.318Z,1009.47
2017-08-28T01:16:42.697Z,1009.43
2017-08-28T01:17:23.123Z,1009.44
2017-08-28T01:18:03.591Z,1009.48
2017-08-28T01:18:43.925Z,1009.48
2017-08-28T01:19:24.429Z,1009.49
2017-08-28T01:20:04.794Z,1009.49
2017-08-28T01:20:45.249Z,1009.48
2017-08-28T01:21:25.785Z,1009.51
2017-08-28T01:22:06.166Z,1009.47
2017-08-28T01:22:46.650Z,1009.48
2017-08-28T01:23:27.019Z,1009.51
2017-08-28T01:24:07.418Z,1009.47
2017-08-28T01:24:47.808Z,1009.44
2017-08-28T01:25:28.259Z,1009.47
2017-08-28T01:26:08.651Z,1009.45
2017-08-28T01:26:49.031Z,1009.51
2017-08-28T01:27:29.534Z,1009.47
2017-08-28T01:28:09.978Z,1009.45
2017-08-28T01:28:50.339Z,1009.48
2017-08-28T01:29:30.864Z,1009.47
2017-08-28T01:30:11.225Z,1009.43
2017-08-28T01:30:51.608Z,1009.43
2017-08-28T01:31:32.026Z,1009.44
2017-08-28T01:32:12.469Z,1009.44
2017-08-28T01:32:52.861Z,1009.45
2017-08-28T01:33:33.251Z,1009.47
2017-08-28T01:34:13.644Z,1009.47
2017-08-28T01:34:54.076Z,1009.47
2017-08-28T01:35:34.444Z,1009.47
2017-08-28T01:36:14.919Z,1009.51
2017-08-28T01:36:55.386Z,1009.5
2017-08-28T01:37:35.836Z,1009.52
2017-08-28T01:38:16.220Z,1009.51
2017-08-28T01:38:56.603Z,1009.53
2017-08-28T01:39:36.989Z,1009.55
2017-08-28T01:40:17.504Z,1009.52
2017-08-28T01:40:57.824Z,1009.54
2017-08-28T01:41:38.339Z,1009.54
2017-08-28T01:42:18.783Z,1009.56
2017-08-28T01:42:59.322Z,1009.54
2017-08-28T01:43:39.734Z,1009.53
2017-08-28T01:44:20.212Z,1009.51
2017-08-28T01:45:00.585Z,1009.52
2017-08-28T01:45:40.967Z,1009.53
2017-08-28T01:46:21.466Z,1009.51
2017-08-28T01:47:01.843Z,1009.5
2017-08-28T01:47:42.317Z,1009.51
2017-08-28T01:48:22.721Z,1009.53
2017-08-28T01:49:03.144Z,1009.52
2017-08-28T01:49:43.541Z,1009.49
2017-08-28T01:50:24.066Z,1009.49
2017-08-28T01:51:04.453Z,1009.46
2017-08-28T01:51:44.842Z,1009.5
2017-08-28T01:52:25.223Z,1009.48
2017-08-28T01:53:05.669Z,1009.46
2017-08-28T01:53:46.191Z,1009.45
2017-08-28T01:54:26.586Z,1009.49
2017-08-28T01:55:07.063Z,1009.51
2017-08-28T01:55:47.450Z,1009.48
2017-08-28T01:56:27.927Z,1009.54
2017-08-28T01:57:08.342Z,1009.52
2017-08-28T01:57:48.726Z,1009.51
2017-08-28T01:58:29.200Z,1009.48
2017-08-28T01:59:09.647Z,1009.49
2017-08-28T01:59:50.052Z,1009.5
2017-08-28T02:00:30.429Z,1009.43
2017-08-28T02:01:10.841Z,1009.48
2017-08-28T02:01:51.290Z,1009.49
2017-08-28T02:02:31.771Z,1009.51
2017-08-28T02:03:12.162Z,1009.47
2017-08-28T02:03:52.525Z,1009.49
2017-08-28T02:04:32.975Z,1009.51
2017-08-28T02:05:13.389Z,1009.5
2017-08-28T02:05:53.855Z,1009.46
2017-08-28T02:06:34.218Z,1009.46
2017-08-28T02:07:14.677Z,1009.46
2017-08-28T02:07:55.106Z,1009.47
2017-08-28T02:08:35.538Z,1009.45
2017-08-28T02:09:15.948Z,1009.46
2017-08-28T02:09:56.393Z,1009.47
2017-08-28T02:10:36.799Z,1009.46
2017-08-28T02:11:17.168Z,1009.45
2017-08-28T02:11:57.705Z,1009.46
2017-08-28T02:12:38.141Z,1009.45
2017-08-28T02:13:18.582Z,1009.45
2017-08-28T02:13:58.914Z,1009.48
2017-08-28T02:14:39.366Z,1009.44
2017-08-28T02:15:19.744Z,1009.48
2017-08-28T02:16:00.129Z,1009.43
2017-08-28T02:16:40.581Z,1009.43
2017-08-28T02:17:20.995Z,1009.45
2017-08-28T02:18:01.392Z,1009.42
2017-08-28T02:18:41.782Z,1009.44
2017-08-28T02:19:22.162Z,1009.41
2017-08-28T02:20:02.579Z,1009.42
2017-08-28T02:20:42.997Z,1009.43
2017-08-28T02:21:23.455Z,1009.39
2017-08-28T02:22:03.994Z,1009.43
2017-08-28T02:22:44.504Z,1009.4
2017-08-28T02:23:24.812Z,1009.41
2017-08-28T02:24:05.273Z,1009.4
2017-08-28T02:24:45.697Z,1009.45
2017-08-28T02:25:26.132Z,1009.47
2017-08-28T02:26:06.480Z,1009.46
2017-08-28T02:26:46.895Z,1009.43
2017-08-28T02:27:27.307Z,1009.51
2017-08-28T02:28:07.716Z,1009.51
2017-08-28T02:28:48.108Z,1009.5
2017-08-28T02:29:28.536Z,1009.46
2017-08-28T02:30:08.923Z,1009.49
2017-08-28T02:30:49.368Z,1009.51
2017-08-28T02:31:29.774Z,1009.49
2017-08-28T02:32:10.212Z,1009.52
2017-08-28T02:32:50.559Z,1009.47
2017-08-28T02:33:31.012Z,1009.5
2017-08-28T02:34:11.384Z,1009.52
2017-08-28T02:34:51.835Z,1009.48
2017-08-28T02:35:32.242Z,1009.5
2017-08-28T02:36:12.621Z,1009.48
2017-08-28T02:36:53.073Z,1009.47
2017-08-28T02:37:33.440Z,1009.44
2017-08-28T02:38:13.922Z,1009.46
2017-08-28T02:38:54.350Z,1009.44
2017-08-28T02:39:34.781Z,1009.47
2017-08-28T02:40:15.289Z,1009.49
2017-08-28T02:40:55.721Z,1009.44
2017-08-28T02:41:36.103Z,1009.43
2017-08-28T02:42:16.441Z,1009.49
2017-08-28T02:42:56.971Z,1009.46
2017-08-28T02:43:37.433Z,1009.47
2017-08-28T02:44:17.789Z,1009.45
2017-08-28T02:44:58.239Z,1009.46
2017-08-28T02:45:38.654Z,1009.48
2017-08-28T02:46:19.120Z,1009.49
2017-08-28T02:46:59.515Z,1009.49
2017-08-28T02:47:39.931Z,1009.49
2017-08-28T02:48:20.268Z,1009.52
2017-08-28T02:49:00.653Z,1009.53
2017-08-28T02:49:41.091Z,1009.51
2017-08-28T02:50:21.515Z,1009.52
2017-08-28T02:52:33.683Z,1009.51
2017-08-28T02:53:31.481Z,1009.51
2017-08-28T02:54:11.845Z,1009.53
2017-08-28T02:54:52.268Z,1009.53
2017-08-28T02:55:32.824Z,1009.54
2017-08-28T02:56:13.223Z,1009.52
2017-08-28T02:56:53.541Z,1009.49
2017-08-28T02:57:33.945Z,1009.49
2017-08-28T02:58:14.346Z,1009.46
2017-08-28T02:58:54.819Z,1009.5
2017-08-28T02:59:35.196Z,1009.48
2017-08-28T03:00:15.660Z,1009.46
2017-08-28T03:00:56.010Z,1009.45
2017-08-28T03:01:36.414Z,1009.45
2017-08-28T03:02:16.912Z,1009.45
2017-08-28T03:02:57.233Z,1009.47
2017-08-28T03:03:37.679Z,1009.44
2017-08-28T03:04:18.020Z,1009.39
2017-08-28T03:04:58.450Z,1009.41
2017-08-28T03:05:38.909Z,1009.41
2017-08-28T03:06:19.346Z,1009.41
2017-08-28T03:06:59.836Z,1009.39
2017-08-28T03:07:40.231Z,1009.4
2017-08-28T03:08:20.711Z,1009.42
2017-08-28T03:09:01.146Z,1009.39
2017-08-28T03:09:41.609Z,1009.42
2017-08-28T03:10:22.071Z,1009.44
2017-08-28T03:11:02.492Z,1009.43
2017-08-28T03:11:42.946Z,1009.43
2017-08-28T03:12:23.322Z,1009.44
2017-08-28T03:13:03.834Z,1009.41
2017-08-28T03:13:44.285Z,1009.45
2017-08-28T03:14:24.673Z,1009.43
2017-08-28T03:15:05.127Z,1009.42
2017-08-28T03:15:45.579Z,1009.43
2017-08-28T03:16:26.086Z,1009.43
2017-08-28T03:17:06.517Z,1009.42
2017-08-28T03:17:47.057Z,1009.45
2017-08-28T03:18:27.509Z,1009.4
2017-08-28T03:19:07.928Z,1009.46
2017-08-28T03:19:48.373Z,1009.47
2017-08-28T03:20:28.774Z,1009.43
2017-08-28T03:21:09.181Z,1009.43
2017-08-28T03:21:49.624Z,1009.45
2017-08-28T03:22:30.077Z,1009.44
2017-08-28T03:23:10.475Z,1009.41
2017-08-28T03:23:50.826Z,1009.43
2017-08-28T03:24:31.355Z,1009.43
2017-08-28T03:25:11.739Z,1009.42
2017-08-28T03:25:52.129Z,1009.43
2017-08-28T03:26:32.483Z,1009.44
2017-08-28T03:27:12.907Z,1009.49
2017-08-28T03:27:53.336Z,1009.47
2017-08-28T03:28:33.696Z,1009.45
2017-08-28T03:29:14.125Z,1009.49
2017-08-28T03:29:54.533Z,1009.48
2017-08-28T03:30:34.937Z,1009.47
2017-08-28T03:31:15.338Z,1009.47
2017-08-28T03:31:55.765Z,1009.49
2017-08-28T03:32:36.216Z,1009.44
2017-08-28T03:34:42.714Z,1009.48
2017-08-28T03:35:29.400Z,1009.42
2017-08-28T03:36:09.768Z,1009.41
2017-08-28T03:36:50.212Z,1009.41
2017-08-28T03:37:30.635Z,1009.42
2017-08-28T03:38:11.032Z,1009.39
2017-08-28T03:38:51.415Z,1009.38
2017-08-28T03:39:31.917Z,1009.37
2017-08-28T03:40:12.337Z,1009.38
2017-08-28T03:40:52.760Z,1009.37
2017-08-28T03:41:33.318Z,1009.38
2017-08-28T03:42:13.716Z,1009.39
2017-08-28T03:42:54.150Z,1009.39
2017-08-28T03:43:34.673Z,1009.4
2017-08-28T03:44:15.213Z,1009.41
2017-08-28T03:44:55.690Z,1009.4
2017-08-28T03:45:36.136Z,1009.44
2017-08-28T03:46:16.545Z,1009.43
2017-08-28T03:46:56.946Z,1009.42
2017-08-28T03:47:37.340Z,1009.44
2017-08-28T03:48:17.791Z,1009.46
2017-08-28T03:48:58.222Z,1009.44
2017-08-28T03:49:38.730Z,1009.45
2017-08-28T03:50:19.143Z,1009.45
2017-08-28T03:50:59.612Z,1009.47
2017-08-28T03:51:40.029Z,1009.45
2017-08-28T03:52:20.495Z,1009.44
2017-08-28T03:53:00.863Z,1009.45
2017-08-28T03:53:41.342Z,1009.47
2017-08-28T03:54:21.708Z,1009.46
2017-08-28T03:55:02.162Z,1009.49
2017-08-28T03:55:42.578Z,1009.45
2017-08-28T03:56:23.101Z,1009.46
2017-08-28T03:57:03.575Z,1009.49
2017-08-28T03:57:44.078Z,1009.45
2017-08-28T03:58:24.445Z,1009.5
2017-08-28T03:59:04.865Z,1009.51
2017-08-28T03:59:45.242Z,1009.47
2017-08-28T04:00:25.634Z,1009.47
2017-08-28T04:01:06.115Z,1009.5
2017-08-28T04:01:46.484Z,1009.48
2017-08-28T04:02:26.963Z,1009.53
2017-08-28T04:03:07.375Z,1009.52
2017-08-28T04:03:47.791Z,1009.54
2017-08-28T04:04:28.189Z,1009.51
2017-08-28T04:05:08.666Z,1009.52
2017-08-28T04:05:49.049Z,1009.52
2017-08-28T04:06:29.549Z,1009.56
2017-08-28T04:07:10.136Z,1009.52
2017-08-28T04:07:50.543Z,1009.53
2017-08-28T04:08:30.932Z,1009.51
2017-08-28T04:09:11.306Z,1009.49
2017-08-28T04:09:51.777Z,1009.52
2017-08-28T04:10:32.314Z,1009.53
2017-08-28T04:11:12.712Z,1009.51
2017-08-28T04:11:53.169Z,1009.51
2017-08-28T04:12:33.582Z,1009.51
2017-08-28T04:13:13.966Z,1009.51
2017-08-28T04:13:54.411Z,1009.56
2017-08-28T04:14:34.781Z,1009.54
2017-08-28T04:15:15.118Z,1009.51
2017-08-28T04:15:55.585Z,1009.51
2017-08-28T04:16:35.982Z,1009.49
2017-08-28T04:17:16.401Z,1009.48
2017-08-28T04:17:56.743Z,1009.51
2017-08-28T04:18:37.171Z,1009.53
2017-08-28T04:19:17.630Z,1009.48
2017-08-28T04:19:57.996Z,1009.5
2017-08-28T04:20:38.482Z,1009.52
2017-08-28T04:21:18.882Z,1009.51
2017-08-28T04:21:59.323Z,1009.47
2017-08-28T04:22:39.688Z,1009.49
2017-08-28T04:23:20.128Z,1009.48
2017-08-28T04:24:00.627Z,1009.5
2017-08-28T04:24:41.117Z,1009.45
2017-08-28T04:25:21.457Z,1009.44
2017-08-28T04:26:01.881Z,1009.43
2017-08-28T04:26:42.323Z,1009.42
2017-08-28T04:27:22.760Z,1009.44
2017-08-28T04:28:03.178Z,1009.47
2017-08-28T04:28:43.544Z,1009.47
2017-08-28T04:29:24.014Z,1009.45
2017-08-28T04:30:04.507Z,1009.46
2017-08-28T04:30:44.999Z,1009.44
2017-08-28T04:31:25.477Z,1009.47
2017-08-28T04:32:05.817Z,1009.45
2017-08-28T04:32:46.187Z,1009.47
2017-08-28T04:33:26.583Z,1009.46
2017-08-28T04:34:07.136Z,1009.44
2017-08-28T04:34:47.478Z,1009.46
2017-08-28T04:35:27.886Z,1009.46
2017-08-28T04:36:08.278Z,1009.44
2017-08-28T04:36:48.839Z,1009.44
2017-08-28T04:37:29.221Z,1009.45
2017-08-28T04:38:09.690Z,1009.49
2017-08-28T04:38:50.006Z,1009.49
2017-08-28T04:39:30.505Z,1009.45
2017-08-28T04:40:10.882Z,1009.46
2017-08-28T04:40:51.276Z,1009.45
2017-08-28T04:41:31.670Z,1009.43
2017-08-28T04:42:12.070Z,1009.4
2017-08-28T04:42:52.507Z,1009.43
2017-08-28T04:43:33.006Z,1009.44
2017-08-28T04:44:13.367Z,1009.44
2017-08-28T04:44:53.816Z,1009.46
2017-08-28T04:45:34.193Z,1009.47
2017-08-28T04:46:14.621Z,1009.5
2017-08-28T04:46:55.001Z,1009.48
2017-08-28T04:47:35.428Z,1009.49
2017-08-28T04:48:15.912Z,1009.46
2017-08-28T04:48:56.352Z,1009.47
2017-08-28T04:49:36.828Z,1009.48
2017-08-28T04:50:17.295Z,1009.5
2017-08-28T04:50:57.704Z,1009.48
2017-08-28T04:51:38.196Z,1009.47
2017-08-28T04:52:18.542Z,1009.5
2017-08-28T04:52:58.904Z,1009.48
2017-08-28T04:53:39.306Z,1009.49
2017-08-28T04:54:19.731Z,1009.47
2017-08-28T04:55:00.133Z,1009.43
2017-08-28T04:55:40.508Z,1009.46
2017-08-28T04:56:20.978Z,1009.45
2017-08-28T04:57:01.398Z,1009.44
2017-08-28T04:57:41.772Z,1009.51
2017-08-28T04:58:22.171Z,1009.48
2017-08-28T04:59:02.507Z,1009.5
2017-08-28T04:59:43.051Z,1009.51
2017-08-28T05:00:23.454Z,1009.49
2017-08-28T05:01:03.844Z,1009.53
2017-08-28T05:01:44.220Z,1009.51
2017-08-28T05:02:24.622Z,1009.53
2017-08-28T05:03:05.035Z,1009.53
2017-08-28T05:03:45.471Z,1009.51
2017-08-28T05:04:25.814Z,1009.52
2017-08-28T05:05:06.238Z,1009.49
2017-08-28T05:05:46.612Z,1009.52
2017-08-28T05:06:27.047Z,1009.47
2017-08-28T05:07:07.541Z,1009.51
2017-08-28T05:07:47.920Z,1009.48
2017-08-28T05:08:28.414Z,1009.5
2017-08-28T05:09:08.750Z,1009.48
2017-08-28T05:09:49.167Z,1009.48
2017-08-28T05:10:29.600Z,1009.52
2017-08-28T05:11:10.177Z,1009.51
2017-08-28T05:11:50.529Z,1009.5
2017-08-28T05:12:30.868Z,1009.47
2017-08-28T05:13:11.409Z,1009.53
2017-08-28T05:13:51.841Z,1009.48
2017-08-28T05:14:32.334Z,1009.52
2017-08-28T05:15:15.133Z,1009.53
2017-08-28T05:15:55.466Z,1009.51
2017-08-28T05:16:35.947Z,1009.53
2017-08-28T05:17:16.407Z,1009.52
2017-08-28T05:17:56.784Z,1009.54
2017-08-28T05:18:37.164Z,1009.54
2017-08-28T05:19:17.671Z,1009.54
2017-08-28T05:19:58.240Z,1009.57
2017-08-28T05:20:38.623Z,1009.59
2017-08-28T05:21:19.048Z,1009.58
2017-08-28T05:21:59.433Z,1009.6
2017-08-28T05:22:40.558Z,1009.58
2017-08-28T05:23:20.993Z,1009.59
2017-08-28T05:24:01.381Z,1009.57
2017-08-28T05:24:41.841Z,1009.57
2017-08-28T05:25:22.188Z,1009.55
2017-08-28T05:26:02.537Z,1009.56
2017-08-28T05:26:43.005Z,1009.57
2017-08-28T05:27:23.381Z,1009.54
2017-08-28T05:28:03.781Z,1009.55
2017-08-28T05:28:44.479Z,1009.55
2017-08-28T05:29:24.929Z,1009.58
2017-08-28T05:30:05.308Z,1009.57
2017-08-28T05:30:45.826Z,1009.59
2017-08-28T05:31:26.201Z,1009.63
2017-08-28T05:32:06.758Z,1009.57
2017-08-28T05:32:47.212Z,1009.61
2017-08-28T05:33:27.635Z,1009.56
2017-08-28T05:35:53.247Z,1009.59
2017-08-28T05:36:49.680Z,1009.55
2017-08-28T05:37:29.954Z,1009.57
2017-08-28T05:38:10.327Z,1009.57
2017-08-28T05:38:50.852Z,1009.58
2017-08-28T05:39:31.749Z,1009.57
2017-08-28T05:40:11.903Z,1009.53
2017-08-28T05:40:52.328Z,1009.56
2017-08-28T05:41:32.704Z,1009.59
2017-08-28T05:42:13.172Z,1009.55
2017-08-28T05:42:53.536Z,1009.54
2017-08-28T05:43:33.908Z,1009.55
2017-08-28T05:44:14.399Z,1009.54
2017-08-28T05:44:54.836Z,1009.56
2017-08-28T05:45:35.148Z,1009.6
2017-08-28T05:46:15.623Z,1009.64
2017-08-28T05:46:56.120Z,1009.6
2017-08-28T05:47:36.573Z,1009.62
2017-08-28T05:48:20.538Z,1009.6
2017-08-28T05:49:01.007Z,1009.64
2017-08-28T05:49:42.265Z,1009.68
2017-08-28T05:50:22.688Z,1009.66
2017-08-28T05:51:03.018Z,1009.65
2017-08-28T05:51:43.447Z,1009.65
2017-08-28T05:52:23.875Z,1009.68
2017-08-28T05:53:04.245Z,1009.66
2017-08-28T05:53:44.996Z,1009.69
2017-08-28T05:54:25.425Z,1009.67
2017-08-28T05:56:25.521Z,1009.67
2017-08-28T05:57:05.860Z,1009.68
2017-08-28T05:57:46.271Z,1009.7
2017-08-28T05:58:26.778Z,1009.66
2017-08-28T05:59:07.217Z,1009.69
2017-08-28T05:59:47.580Z,1009.7
2017-08-28T06:00:28.021Z,1009.69
2017-08-28T06:01:08.634Z,1009.66
2017-08-28T06:01:49.016Z,1009.68
2017-08-28T06:02:29.412Z,1009.71
2017-08-28T06:03:09.817Z,1009.71
2017-08-28T06:03:50.269Z,1009.71
2017-08-28T06:04:30.700Z,1009.75
2017-08-28T06:05:11.023Z,1009.71
2017-08-28T06:05:51.434Z,1009.72
2017-08-28T06:06:31.899Z,1009.73
2017-08-28T06:07:12.314Z,1009.7
2017-08-28T06:07:52.744Z,1009.74
2017-08-28T06:08:33.113Z,1009.75
2017-08-28T06:09:13.537Z,1009.7
2017-08-28T06:09:53.933Z,1009.71
2017-08-28T06:10:34.358Z,1009.72
2017-08-28T06:11:14.775Z,1009.64
2017-08-28T06:11:55.220Z,1009.62
2017-08-28T06:12:35.592Z,1009.62
2017-08-28T06:13:16.058Z,1009.64
2017-08-28T06:13:56.491Z,1009.6
2017-08-28T06:14:36.988Z,1009.58
2017-08-28T06:15:17.398Z,1009.59
2017-08-28T06:15:57.838Z,1009.6
2017-08-28T06:16:38.371Z,1009.51
2017-08-28T06:17:18.709Z,1009.55
2017-08-28T06:17:59.104Z,1009.53
2017-08-28T06:18:39.502Z,1009.61
2017-08-28T06:19:20.036Z,1009.62
2017-08-28T06:20:03.389Z,1009.6
2017-08-28T06:22:33.544Z,1009.68
2017-08-28T06:23:13.739Z,1009.63
2017-08-28T06:23:54.107Z,1009.71
2017-08-28T06:24:34.650Z,1009.65
2017-08-28T06:25:15.037Z,1009.66
2017-08-28T06:25:55.473Z,1009.69
2017-08-28T06:26:35.992Z,1009.66
2017-08-28T06:27:16.383Z,1009.61
2017-08-28T06:27:56.899Z,1009.65
2017-08-28T06:28:37.291Z,1009.66
2017-08-28T06:29:17.769Z,1009.59
2017-08-28T06:29:58.307Z,1009.64
2017-08-28T06:30:38.757Z,1009.62
2017-08-28T06:31:19.195Z,1009.65
2017-08-28T06:31:59.620Z,1009.65
2017-08-28T06:32:40.057Z,1009.62
2017-08-28T06:33:20.481Z,1009.66
2017-08-28T06:34:00.905Z,1009.66
2017-08-28T06:34:41.485Z,1009.66
2017-08-28T06:35:21.740Z,1009.69
2017-08-28T06:36:02.245Z,1009.68
2017-08-28T06:36:42.717Z,1009.7
2017-08-28T06:37:23.587Z,1009.72
2017-08-28T06:38:04.113Z,1009.69
2017-08-28T06:38:44.572Z,1009.66
2017-08-28T06:39:24.945Z,1009.65
2017-08-28T06:40:05.378Z,1009.73
2017-08-28T06:40:45.686Z,1009.74
2017-08-28T06:41:26.876Z,1009.7
2017-08-28T06:42:07.293Z,1009.69
2017-08-28T06:42:47.687Z,1009.73
2017-08-28T06:43:28.045Z,1009.76
2017-08-28T06:44:08.474Z,1009.76
2017-08-28T06:44:48.928Z,1009.76
2017-08-28T06:45:29.387Z,1009.73
2017-08-28T06:46:09.681Z,1009.78
2017-08-28T06:46:50.166Z,1009.76
2017-08-28T06:47:30.582Z,1009.79
2017-08-28T06:48:10.932Z,1009.81
2017-08-28T06:48:51.400Z,1009.79
2017-08-28T06:49:31.783Z,1009.83
2017-08-28T06:50:12.336Z,1009.81
2017-08-28T06:50:52.739Z,1009.79
2017-08-28T06:51:33.164Z,1009.83
2017-08-28T06:52:13.606Z,1009.82
2017-08-28T06:52:54.102Z,1009.84
2017-08-28T06:53:34.469Z,1009.81
2017-08-28T06:54:14.902Z,1009.83
2017-08-28T06:54:55.249Z,1009.8
2017-08-28T06:55:35.707Z,1009.8
2017-08-28T06:56:16.183Z,1009.81
2017-08-28T06:56:56.706Z,1009.8
2017-08-28T06:57:37.086Z,1009.77
2017-08-28T06:58:17.477Z,1009.79
2017-08-28T06:58:58.022Z,1009.8
2017-08-28T06:59:38.470Z,1009.79
2017-08-28T07:00:18.918Z,1009.76
2017-08-28T07:01:00.273Z,1009.79
2017-08-28T07:01:42.591Z,1009.75
2017-08-28T07:02:23.369Z,1009.77
2017-08-28T07:03:03.824Z,1009.8
2017-08-28T07:03:44.167Z,1009.82
2017-08-28T07:04:24.615Z,1009.77
2017-08-28T07:05:05.718Z,1009.77
2017-08-28T07:05:46.100Z,1009.82
2017-08-28T07:06:26.695Z,1009.79
2017-08-28T07:07:07.192Z,1009.79
2017-08-28T07:07:47.562Z,1009.81
2017-08-28T07:08:28.052Z,1009.81
2017-08-28T07:09:08.462Z,1009.8
2017-08-28T07:09:48.857Z,1009.79
2017-08-28T07:10:29.358Z,1009.8
2017-08-28T07:11:09.897Z,1009.84
2017-08-28T07:11:51.301Z,1009.81
2017-08-28T07:12:31.786Z,1009.84
2017-08-28T07:13:12.374Z,1009.86
2017-08-28T07:13:53.950Z,1009.86
2017-08-28T07:14:35.312Z,1009.9
2017-08-28T07:15:15.857Z,1009.88
2017-08-28T07:15:56.264Z,1009.85
2017-08-28T07:16:36.725Z,1009.89
2017-08-28T07:17:17.586Z,1009.9
2017-08-28T07:17:57.974Z,1009.87
2017-08-28T07:18:40.968Z,1009.84
2017-08-28T07:19:21.501Z,1009.83
2017-08-28T07:20:01.832Z,1009.83
2017-08-28T07:20:42.222Z,1009.83
2017-08-28T07:21:22.684Z,1009.87
2017-08-28T07:22:03.199Z,1009.82
2017-08-28T07:22:43.731Z,1009.83
2017-08-28T07:23:24.153Z,1009.84
2017-08-28T07:24:04.567Z,1009.86
2017-08-28T07:24:45.027Z,1009.89
2017-08-28T07:25:25.449Z,1009.91
2017-08-28T07:26:05.854Z,1009.92
2017-08-28T07:26:46.280Z,1009.92
2017-08-28T07:27:27.684Z,1009.97
2017-08-28T07:28:10.099Z,1009.98
2017-08-28T07:30:21.738Z,1009.95
2017-08-28T07:31:15.720Z,1010
2017-08-28T07:32:15.910Z,1009.99
2017-08-28T07:33:18.385Z,1010.02
2017-08-28T07:34:19.222Z,1010.05
2017-08-28T07:37:07.512Z,1010.1
2017-08-28T07:37:48.044Z,1010.14
2017-08-28T07:38:28.780Z,1010.13
2017-08-28T07:39:09.798Z,1010.12
2017-08-28T07:39:50.290Z,1010.12
2017-08-28T07:40:30.681Z,1010.13
2017-08-28T07:41:11.394Z,1010.13
2017-08-28T07:41:51.954Z,1010.13
2017-08-28T07:42:32.813Z,1010.14
2017-08-28T07:43:13.574Z,1010.07
2017-08-28T07:43:54.533Z,1010.11
2017-08-28T07:44:35.016Z,1010.08
2017-08-28T07:45:15.455Z,1010.08
2017-08-28T07:45:57.086Z,1010.09
2017-08-28T07:46:37.485Z,1010.11
2017-08-28T07:47:17.994Z,1010.11
2017-08-28T07:47:58.473Z,1010.11
2017-08-28T07:48:38.993Z,1010.1
2017-08-28T07:49:20.445Z,1010.18
2017-08-28T07:50:02.282Z,1010.11
2017-08-28T07:50:43.013Z,1010.15
2017-08-28T07:51:24.214Z,1010.15
2017-08-28T07:52:12.311Z,1010.15
2017-08-28T07:52:52.817Z,1010.13
2017-08-28T07:53:33.295Z,1010.11
2017-08-28T07:54:14.043Z,1010.1
2017-08-28T07:54:54.734Z,1010.11
2017-08-28T07:55:35.122Z,1010.11
2017-08-28T07:56:17.006Z,1010.13
2017-08-28T07:58:47.300Z,1010.11
2017-08-28T07:59:38.442Z,1010.15
2017-08-28T08:00:18.909Z,1010.14
2017-08-28T08:00:59.392Z,1010.14
2017-08-28T08:01:39.988Z,1010.13
2017-08-28T08:02:20.481Z,1010.14
2017-08-28T08:03:01.132Z,1010.18
2017-08-28T08:03:42.039Z,1010.15
2017-08-28T08:04:24.046Z,1010.16
2017-08-28T08:05:05.569Z,1010.11
2017-08-28T08:05:47.544Z,1010.15
2017-08-28T08:06:28.067Z,1010.16
2017-08-28T08:07:08.513Z,1010.1
2017-08-28T08:07:49.126Z,1010.14
2017-08-28T08:08:29.294Z,1010.14
2017-08-28T08:09:09.886Z,1010.13
2017-08-28T08:09:50.311Z,1010.12
2017-08-28T08:10:30.685Z,1010.09
2017-08-28T08:11:11.194Z,1010.18
2017-08-28T08:11:51.550Z,1010.11
2017-08-28T08:12:32.006Z,1010.08
2017-08-28T08:13:12.413Z,1010.03
2017-08-28T08:13:52.870Z,1010.05
2017-08-28T08:14:33.332Z,1010.04
2017-08-28T08:15:13.713Z,1010.07
2017-08-28T08:15:54.218Z,1010.01
2017-08-28T08:16:34.580Z,1010.01
2017-08-28T08:17:15.018Z,1009.98
2017-08-28T08:17:56.264Z,1010.02
2017-08-28T08:18:38.507Z,1009.99
2017-08-28T08:19:19.885Z,1009.98
2017-08-28T08:20:00.378Z,1009.98
2017-08-28T08:20:40.836Z,1010.03
2017-08-28T08:21:21.272Z,1010.02
2017-08-28T08:22:01.756Z,1009.98
2017-08-28T08:22:42.339Z,1009.99
2017-08-28T08:23:22.715Z,1010
2017-08-28T08:24:03.219Z,1009.95
2017-08-28T08:24:43.779Z,1009.96
2017-08-28T08:25:25.253Z,1009.97
2017-08-28T08:26:05.784Z,1009.96
2017-08-28T08:26:46.346Z,1009.99